createdAt,value
2017-06-09T00:01:00.549Z,92.16
2017-06-09T00:01:45.959Z,91.97
2017-06-09T00:02:45.979Z,92.16
2017-06-09T00:03:46.003Z,92.44
2017-06-09T00:04:46.031Z,92.06
2017-06-09T00:05:46.053Z,92.06
2017-06-09T00:06:46.077Z,91.49
2017-06-09T00:07:46.100Z,91.3
2017-06-09T00:08:46.124Z,90.44
2017-06-09T00:09:46.148Z,90.44
2017-06-09T00:10:46.173Z,89.95
2017-06-09T00:11:46.197Z,89.95
2017-06-09T00:12:46.221Z,89.86
2017-06-09T00:13:46.247Z,90.44
2017-06-09T00:14:45.966Z,90.53
2017-06-09T00:16:00.912Z,90.44
2017-06-09T00:16:46.319Z,90.05
2017-06-09T00:17:46.341Z,90.53
2017-06-09T00:18:46.366Z,90.34
2017-06-09T00:19:46.391Z,90.63
2017-06-09T00:20:46.416Z,90.05
2017-06-09T00:21:46.442Z,90.53
2017-06-09T00:22:46.162Z,90.44
2017-06-09T00:23:46.486Z,90.91
2017-06-09T00:24:46.510Z,90.53
2017-06-09T00:25:46.586Z,90.34
2017-06-09T00:26:46.560Z,91.01
2017-06-09T00:28:46.608Z,91.3
2017-06-09T00:29:46.635Z,90.82
2017-06-09T00:30:46.665Z,91.49
2017-06-09T00:31:46.683Z,91.49
2017-06-09T00:32:46.703Z,91.87
2017-06-09T00:33:46.730Z,90.82
2017-06-09T00:34:46.753Z,90.82
2017-06-09T00:35:46.780Z,90.82
2017-06-09T00:36:46.802Z,91.3
2017-06-09T00:37:46.829Z,91.49
2017-06-09T00:38:46.853Z,91.39
2017-06-09T00:39:46.874Z,91.39
2017-06-09T00:40:46.898Z,92.06
2017-06-09T00:41:46.922Z,92.16
2017-06-09T00:42:46.947Z,92.06
2017-06-09T00:43:46.969Z,92.21
2017-06-09T00:46:47.041Z,93.07
2017-06-09T00:48:01.683Z,93.07
2017-06-09T00:48:47.091Z,93.07
2017-06-09T00:49:46.811Z,92.97
2017-06-09T00:50:47.137Z,93.84
2017-06-09T00:51:47.163Z,93.84
2017-06-09T00:52:47.187Z,94.6
2017-06-09T00:53:47.210Z,94.21
2017-06-09T00:54:47.235Z,94.12
2017-06-09T00:55:47.258Z,94.7
2017-06-09T00:56:47.283Z,95.22
2017-06-09T00:57:47.310Z,95.12
2017-06-09T00:58:47.331Z,95.41
2017-06-09T01:00:47.380Z,95.12
2017-06-09T01:01:47.406Z,95.98
2017-06-09T01:02:47.427Z,95.89
2017-06-09T01:04:02.068Z,95.41
2017-06-09T01:04:47.476Z,95.12
2017-06-09T01:05:47.499Z,95.12
2017-06-09T01:06:47.224Z,95.61
2017-06-09T01:07:47.546Z,95.98
2017-06-09T01:08:47.569Z,95.89
2017-06-09T01:09:47.596Z,96.66
2017-06-09T01:10:47.618Z,96.47
2017-06-09T01:11:47.642Z,96.08
2017-06-09T01:12:47.666Z,96.08
2017-06-09T01:13:47.386Z,96.56
2017-06-09T01:14:47.714Z,96.75
2017-06-09T01:17:47.790Z,96.75
2017-06-09T01:18:47.809Z,96.66
2017-06-09T01:20:02.450Z,96.84
2017-06-09T01:20:47.857Z,96.94
2017-06-09T01:21:47.880Z,96.7
2017-06-09T01:22:47.906Z,97.47
2017-06-09T01:23:47.929Z,97.28
2017-06-09T01:24:47.648Z,97.9
2017-06-09T01:25:47.976Z,98.23
2017-06-09T01:26:48.000Z,98.13
2017-06-09T01:27:48.023Z,98.13
2017-06-09T01:28:48.047Z,98.42
2017-06-09T01:29:48.072Z,98.52
2017-06-09T01:30:48.095Z,98.42
2017-06-09T01:31:48.121Z,98.42
2017-06-09T01:33:48.166Z,98.04
2017-06-09T01:34:48.190Z,97.56
2017-06-09T01:36:02.882Z,96.51
2017-06-09T01:36:48.239Z,96.8
2017-06-09T01:37:48.263Z,96.89
2017-06-09T01:38:48.285Z,97.18
2017-06-09T01:39:48.309Z,97.28
2017-06-09T01:40:48.333Z,97.66
2017-06-09T01:41:48.356Z,97.47
2017-06-09T01:42:48.381Z,97.85
2017-06-09T01:43:48.404Z,97.94
2017-06-09T01:44:48.428Z,97.94
2017-06-09T01:45:48.451Z,98.52
2017-06-09T01:46:48.474Z,98.23
2017-06-09T01:47:48.500Z,98.23
2017-06-09T01:49:48.547Z,98.71
2017-06-09T01:51:03.188Z,99.19
2017-06-09T01:51:48.599Z,99.38
2017-06-09T01:52:48.617Z,99.28
2017-06-09T01:53:48.642Z,99.09
2017-06-09T01:54:48.361Z,98.61
2017-06-09T01:55:48.689Z,99.09
2017-06-09T01:56:48.762Z,99.43
2017-06-09T01:57:48.736Z,99.62
2017-06-09T01:58:48.761Z,99.04
2017-06-09T01:59:48.782Z,99.43
2017-06-09T02:00:48.806Z,99.71
2017-06-09T02:04:48.901Z,99.43
2017-06-09T02:05:48.926Z,99.33
2017-06-09T02:06:48.951Z,99.28
2017-06-09T02:07:48.971Z,99.33
2017-06-09T02:08:48.995Z,99.23
2017-06-09T02:09:49.022Z,99.14
2017-06-09T02:10:48.740Z,99.14
2017-06-09T02:11:49.066Z,99.62
2017-06-09T02:12:49.091Z,99.04
2017-06-09T02:13:49.115Z,99.62
2017-06-09T02:14:49.139Z,99.33
2017-06-09T02:15:48.857Z,99.52
2017-06-09T02:16:49.185Z,99.33
2017-06-09T02:17:49.209Z,99.23
2017-06-09T02:18:49.232Z,99.33
2017-06-09T02:20:49.281Z,99.33
2017-06-09T02:21:49.300Z,99.14
2017-06-09T02:23:03.943Z,99.23
2017-06-09T02:23:49.348Z,99.43
2017-06-09T02:24:49.372Z,98.57
2017-06-09T02:25:49.395Z,98.94
2017-06-09T02:26:49.418Z,98.57
2017-06-09T02:27:49.442Z,99.23
2017-06-09T02:28:49.468Z,99.52
2017-06-09T02:29:49.490Z,99.99
2017-06-09T02:30:49.512Z,99.99
2017-06-09T02:31:49.543Z,99.99
2017-06-09T02:32:49.559Z,99.99
2017-06-09T02:33:49.585Z,99.99
2017-06-09T02:35:49.653Z,99.99
2017-06-09T02:36:49.654Z,99.99
2017-06-09T02:37:49.677Z,99.99
2017-06-09T02:39:04.317Z,99.99
2017-06-09T02:39:49.727Z,99.99
2017-06-09T02:40:49.746Z,99.99
2017-06-09T02:41:49.771Z,99.99
2017-06-09T02:42:49.793Z,99.99
2017-06-09T02:43:49.817Z,99.99
2017-06-09T02:44:49.537Z,99.71
2017-06-09T02:45:49.561Z,99.71
2017-06-09T02:46:49.888Z,99.8
2017-06-09T02:47:49.910Z,99.52
2017-06-09T02:48:49.935Z,99.8
2017-06-09T02:50:49.981Z,99.99
2017-06-09T02:52:50.032Z,99.9
2017-06-09T02:53:50.052Z,99.99
2017-06-09T02:55:04.691Z,99.9
2017-06-09T02:55:50.097Z,99.99
2017-06-09T02:56:49.818Z,99.99
2017-06-09T02:57:50.144Z,99.99
2017-06-09T02:58:50.167Z,99.99
2017-06-09T02:59:50.191Z,99.99
2017-06-09T03:00:50.214Z,99.99
2017-06-09T03:01:50.238Z,99.99
2017-06-09T03:02:50.261Z,99.99
2017-06-09T03:03:50.284Z,99.99
2017-06-09T03:04:50.308Z,99.99
2017-06-09T03:05:50.329Z,99.99
2017-06-09T03:06:50.353Z,99.99
2017-06-09T03:07:50.386Z,99.99
2017-06-09T03:08:50.404Z,99.8
2017-06-09T03:09:50.423Z,99.8
2017-06-09T03:11:05.066Z,99.8
2017-06-09T03:11:50.470Z,99.62
2017-06-09T03:12:50.192Z,99.9
2017-06-09T03:13:50.516Z,99.99
2017-06-09T03:14:50.541Z,99.99
2017-06-09T03:15:50.564Z,99.99
2017-06-09T03:16:50.587Z,99.71
2017-06-09T03:17:50.610Z,99.23
2017-06-09T03:18:50.634Z,99.8
2017-06-09T03:20:50.680Z,99.57
2017-06-09T03:21:50.704Z,99.43
2017-06-09T03:24:50.778Z,98.8
2017-06-09T03:26:05.415Z,98.8
2017-06-09T03:26:50.822Z,98.52
2017-06-09T03:27:50.844Z,98.13
2017-06-09T03:28:50.870Z,97.94
2017-06-09T03:29:50.891Z,98.04
2017-06-09T03:30:50.915Z,97.56
2017-06-09T03:31:50.938Z,98.04
2017-06-09T03:32:50.963Z,97.28
2017-06-09T03:33:51.036Z,96.47
2017-06-09T03:34:51.008Z,95.89
2017-06-09T03:36:51.057Z,95.61
2017-06-09T03:37:51.080Z,95.51
2017-06-09T03:38:51.103Z,95.12
2017-06-09T03:39:51.130Z,95.12
2017-06-09T03:40:51.151Z,94.65
2017-06-09T03:41:51.176Z,94.26
2017-06-09T03:42:51.197Z,93.69
2017-06-09T03:43:51.223Z,93.64
2017-06-09T03:44:51.245Z,93.6
2017-06-09T03:45:51.267Z,93.31
2017-06-09T03:46:51.295Z,93.21
2017-06-09T03:47:51.316Z,93.31
2017-06-09T03:48:51.342Z,92.74
2017-06-09T03:49:51.365Z,92.83
2017-06-09T03:50:51.390Z,92.69
2017-06-09T03:51:51.412Z,93.4
2017-06-09T03:52:51.435Z,93.69
2017-06-09T03:53:51.458Z,93.6
2017-06-09T03:55:51.506Z,94.07
2017-06-09T03:56:51.581Z,94.41
2017-06-09T03:58:06.172Z,94.31
2017-06-09T03:58:51.578Z,94.46
2017-06-09T03:59:51.601Z,94.31
2017-06-09T04:00:51.627Z,94.12
2017-06-09T04:01:51.649Z,94.41
2017-06-09T04:02:51.673Z,93.74
2017-06-09T04:03:51.697Z,93.6
2017-06-09T04:04:51.721Z,92.78
2017-06-09T04:05:51.745Z,93.07
2017-06-09T04:06:51.767Z,92.88
2017-06-09T04:07:51.791Z,92.4
2017-06-09T04:08:51.815Z,93.07
2017-06-09T04:09:51.840Z,92.3
2017-06-09T04:10:51.865Z,91.87
2017-06-09T04:11:51.888Z,90.24
2017-06-09T04:12:51.608Z,88.61
2017-06-09T04:14:06.554Z,84.91
2017-06-09T04:14:51.961Z,82.03
2017-06-09T04:15:51.987Z,78.8
2017-06-09T04:16:52.011Z,75.87
2017-06-09T04:17:52.034Z,74.08
2017-06-09T04:18:52.059Z,71.46
2017-06-09T04:19:52.087Z,68.44
2017-06-09T04:20:52.113Z,66.39
2017-06-09T04:21:52.138Z,64.79
2017-06-09T04:22:52.164Z,62.51
2017-06-09T04:23:52.190Z,60.64
2017-06-09T04:25:52.243Z,57.79
2017-06-09T04:27:52.297Z,57.73
2017-06-09T04:28:52.326Z,56.83
2017-06-09T04:30:06.972Z,55.02
2017-06-09T04:30:52.383Z,54.08
2017-06-09T04:31:52.415Z,52.56
2017-06-09T04:32:52.440Z,52.2
2017-06-09T04:33:52.468Z,51.62
2017-06-09T04:34:52.497Z,49.9
2017-06-09T04:35:52.527Z,48.76
2017-06-09T04:36:52.557Z,48.78
2017-06-09T04:37:52.586Z,48
2017-06-09T04:38:52.617Z,47.91
2017-06-09T04:39:52.646Z,47.81
2017-06-09T04:40:52.676Z,47.23
2017-06-09T04:43:52.769Z,46.28
2017-06-09T04:44:52.798Z,46.75
2017-06-09T04:46:07.449Z,45.92
2017-06-09T04:46:52.863Z,46.31
2017-06-09T04:47:52.894Z,45.65
2017-06-09T04:48:52.926Z,44.48
2017-06-09T04:49:52.959Z,43.82
2017-06-09T04:50:52.688Z,43.95
2017-06-09T04:51:53.022Z,42.6
2017-06-09T04:52:53.058Z,41.67
2017-06-09T04:53:53.089Z,41.28
2017-06-09T04:54:53.122Z,41.16
2017-06-09T04:55:53.155Z,42.43
2017-06-09T04:56:53.239Z,41.16
2017-06-09T04:57:53.224Z,41.77
2017-06-09T04:58:52.953Z,41.85
2017-06-09T04:59:53.293Z,40.6
2017-06-09T05:01:07.941Z,39.84
2017-06-09T05:01:53.356Z,39.86
2017-06-09T05:02:53.389Z,39.37
2017-06-09T05:03:53.423Z,38.02
2017-06-09T05:04:53.457Z,36.51
2017-06-09T05:05:53.493Z,38.06
2017-06-09T05:06:53.525Z,36.99
2017-06-09T05:07:53.561Z,36.51
2017-06-09T05:08:53.594Z,36.43
2017-06-09T05:09:53.627Z,35.64
2017-06-09T05:10:53.359Z,35.36
2017-06-09T05:11:53.698Z,34.19
2017-06-09T05:13:53.766Z,34.13
2017-06-09T05:14:53.804Z,33.75
2017-06-09T05:15:53.836Z,33.26
2017-06-09T05:16:53.873Z,33.28
2017-06-09T05:17:53.906Z,31.52
2017-06-09T05:18:53.944Z,32.2
2017-06-09T05:19:53.978Z,33.28
2017-06-09T05:20:54.013Z,32.29
2017-06-09T05:21:54.050Z,32.87
2017-06-09T05:22:54.084Z,32.09
2017-06-09T05:23:54.122Z,32.2
2017-06-09T05:24:53.851Z,30.82
2017-06-09T05:25:53.887Z,30.94
2017-06-09T05:26:54.227Z,31.11
2017-06-09T05:27:54.264Z,32.39
2017-06-09T05:29:54.335Z,31.88
2017-06-09T05:30:54.373Z,31.98
2017-06-09T05:31:54.405Z,31.7
2017-06-09T05:33:09.063Z,31.8
2017-06-09T05:33:54.478Z,31.98
2017-06-09T05:34:54.515Z,32.56
2017-06-09T05:35:54.588Z,32.45
2017-06-09T05:36:54.636Z,32.06
2017-06-09T05:37:54.624Z,32.75
2017-06-09T05:38:54.660Z,30.91
2017-06-09T05:39:54.696Z,31.67
2017-06-09T05:40:54.732Z,32.56
2017-06-09T05:41:54.766Z,32.65
2017-06-09T05:42:54.803Z,31.88
2017-06-09T05:44:54.875Z,31.62
2017-06-09T05:45:54.911Z,30.74
2017-06-09T05:47:54.984Z,30.04
2017-06-09T05:49:09.641Z,31.51
2017-06-09T05:49:55.057Z,31.39
2017-06-09T05:50:55.094Z,30.33
2017-06-09T05:51:55.130Z,31.81
2017-06-09T05:52:55.169Z,30.75
2017-06-09T05:53:55.200Z,30.37
2017-06-09T05:54:54.935Z,31.03
2017-06-09T05:55:55.274Z,30.08
2017-06-09T05:56:55.312Z,30.19
2017-06-09T05:57:55.348Z,27.87
2017-06-09T05:58:55.385Z,28.54
2017-06-09T06:00:55.458Z,27.75
2017-06-09T06:02:55.531Z,28.77
2017-06-09T06:03:55.570Z,28.17
2017-06-09T06:05:10.225Z,28.68
2017-06-09T06:05:55.643Z,26.72
2017-06-09T06:06:55.679Z,25.94
2017-06-09T06:07:55.717Z,26.74
2017-06-09T06:08:55.754Z,27.02
2017-06-09T06:09:55.792Z,25.85
2017-06-09T06:10:55.830Z,26.73
2017-06-09T06:11:55.870Z,26.63
2017-06-09T06:12:55.905Z,26.82
2017-06-09T06:13:55.942Z,27.37
2017-06-09T06:14:55.980Z,28.54
2017-06-09T06:15:56.016Z,29.34
2017-06-09T06:16:56.058Z,27.26
2017-06-09T06:18:56.129Z,26.53
2017-06-09T06:19:56.166Z,26.62
2017-06-09T06:21:10.825Z,26.61
2017-06-09T06:21:56.242Z,26.04
2017-06-09T06:22:56.282Z,24.4
2017-06-09T06:23:56.317Z,25.28
2017-06-09T06:24:56.356Z,24.19
2017-06-09T06:25:56.395Z,24.32
2017-06-09T06:26:56.431Z,25.84
2017-06-09T06:27:56.470Z,26.85
2017-06-09T06:28:56.510Z,24.32
2017-06-09T06:30:56.635Z,24.63
2017-06-09T06:31:56.624Z,25.02
2017-06-09T06:32:56.661Z,23.57
2017-06-09T06:33:56.705Z,22.67
2017-06-09T06:34:56.438Z,24.23
2017-06-09T06:36:11.399Z,24.43
2017-06-09T06:36:56.848Z,23.46
2017-06-09T06:37:56.855Z,23.77
2017-06-09T06:38:56.894Z,22.5
2017-06-09T06:39:56.933Z,22.02
2017-06-09T06:40:56.973Z,22.03
2017-06-09T06:41:57.009Z,22.31
2017-06-09T06:42:57.050Z,22.41
2017-06-09T06:43:57.089Z,23.3
2017-06-09T06:44:57.128Z,22.11
2017-06-09T06:45:57.168Z,21.9
2017-06-09T06:46:57.207Z,22.58
2017-06-09T06:47:57.245Z,24.16
2017-06-09T06:48:57.284Z,22.19
2017-06-09T06:49:57.326Z,23.47
2017-06-09T06:50:57.362Z,22.75
2017-06-09T06:51:57.403Z,22.56
2017-06-09T06:52:57.439Z,23.41
2017-06-09T06:53:57.176Z,25.46
2017-06-09T06:54:57.522Z,25.94
2017-06-09T06:55:57.558Z,25.65
2017-06-09T06:56:57.596Z,24.98
2017-06-09T06:57:57.633Z,24
2017-06-09T06:58:57.673Z,24.38
2017-06-09T06:59:57.711Z,27.42
2017-06-09T07:00:57.501Z,26.05
2017-06-09T07:01:57.835Z,25.94
2017-06-09T07:02:57.825Z,26.82
2017-06-09T07:03:57.862Z,28.08
2017-06-09T07:05:57.941Z,27.8
2017-06-09T07:06:57.976Z,27.71
2017-06-09T07:08:12.636Z,26.63
2017-06-09T07:08:58.052Z,27.6
2017-06-09T07:09:58.096Z,26.61
2017-06-09T07:10:58.127Z,27.59
2017-06-09T07:11:57.863Z,26.7
2017-06-09T07:12:58.203Z,27.99
2017-06-09T07:13:58.540Z,25.74
2017-06-09T07:14:58.327Z,24.37
2017-06-09T07:15:58.322Z,25.37
2017-06-09T07:16:58.353Z,26.52
2017-06-09T07:17:58.389Z,26.52
2017-06-09T07:18:58.427Z,26.24
2017-06-09T07:21:06.307Z,26.42
2017-06-09T07:21:58.236Z,28.67
2017-06-09T07:22:58.577Z,27.69
2017-06-09T07:24:13.237Z,27.69
2017-06-09T07:24:58.653Z,27.97
2017-06-09T07:25:58.689Z,26.59
2017-06-09T07:26:58.782Z,28.54
2017-06-09T07:27:58.763Z,28.02
2017-06-09T07:28:58.802Z,27.55
2017-06-09T07:29:58.839Z,26.76
2017-06-09T07:30:58.875Z,29.22
2017-06-09T07:31:58.911Z,27.98
2017-06-09T07:32:58.949Z,27.12
2017-06-09T07:33:58.986Z,26.84
2017-06-09T07:34:59.023Z,26.17
2017-06-09T07:35:59.061Z,25.77
2017-06-09T07:37:59.136Z,25.87
2017-06-09T07:38:59.174Z,25.49
2017-06-09T07:40:13.831Z,25.96
2017-06-09T07:40:59.250Z,26.54
2017-06-09T07:41:59.285Z,25.38
2017-06-09T07:42:59.019Z,25.84
2017-06-09T07:43:59.360Z,25.76
2017-06-09T07:44:59.397Z,26.62
2017-06-09T07:45:59.437Z,24.08
2017-06-09T07:46:59.474Z,24.68
2017-06-09T07:47:59.514Z,24.29
2017-06-09T07:48:59.550Z,25.55
2017-06-09T07:49:59.589Z,26.04
2017-06-09T07:50:59.624Z,24.68
2017-06-09T07:51:59.661Z,25.77
2017-06-09T07:53:59.738Z,23.9
2017-06-09T07:54:59.472Z,23.82
2017-06-09T07:56:14.435Z,24.9
2017-06-09T07:56:59.860Z,24.3
2017-06-09T07:57:59.890Z,23.94
2017-06-09T07:58:59.927Z,23.43
2017-06-09T07:59:59.968Z,23.85
2017-06-09T08:01:00.004Z,24.51
2017-06-09T08:02:00.042Z,24.47
2017-06-09T08:03:00.082Z,24.74
2017-06-09T08:04:00.119Z,26.29
2017-06-09T08:05:00.202Z,26.69
2017-06-09T08:06:00.192Z,28.36
2017-06-09T08:07:00.232Z,28.68
2017-06-09T08:08:00.270Z,24.87
2017-06-09T08:09:00.004Z,25.39
2017-06-09T08:10:00.345Z,25.77
2017-06-09T08:11:15.005Z,24.49
2017-06-09T08:12:00.422Z,24.11
2017-06-09T08:13:00.458Z,25.29
2017-06-09T08:14:00.497Z,25.4
2017-06-09T08:15:00.534Z,25.4
2017-06-09T08:16:00.269Z,24.12
2017-06-09T08:17:00.609Z,23.72
2017-06-09T08:18:00.647Z,24.01
2017-06-09T08:19:00.687Z,24.4
2017-06-09T08:20:00.722Z,25.88
2017-06-09T08:21:00.759Z,25.66
2017-06-09T08:22:00.798Z,24.48
2017-06-09T08:23:00.835Z,25.27
2017-06-09T08:24:00.876Z,26.64
2017-06-09T08:25:00.910Z,25.37
2017-06-09T08:26:00.947Z,24.19
2017-06-09T08:27:00.985Z,24.01
2017-06-09T08:28:01.022Z,24.41
2017-06-09T08:29:01.060Z,24.13
2017-06-09T08:30:00.797Z,23.55
2017-06-09T08:31:01.134Z,23.36
2017-06-09T08:32:01.172Z,23.55
2017-06-09T08:33:01.210Z,23.65
2017-06-09T08:34:01.249Z,23.46
2017-06-09T08:35:01.284Z,22.85
2017-06-09T08:36:01.323Z,22.67
2017-06-09T08:38:01.399Z,26.28
2017-06-09T08:39:01.485Z,24.62
2017-06-09T08:40:01.474Z,22.47
2017-06-09T08:41:01.509Z,22.27
2017-06-09T08:42:01.545Z,24.13
2017-06-09T08:43:16.205Z,25.29
2017-06-09T08:44:01.625Z,24.6
2017-06-09T08:45:01.659Z,25.4
2017-06-09T08:46:01.697Z,24.32
2017-06-09T08:47:01.735Z,23.93
2017-06-09T08:48:01.771Z,24.71
2017-06-09T08:49:01.808Z,23.25
2017-06-09T08:50:01.542Z,22.27
2017-06-09T08:51:01.882Z,23.65
2017-06-09T08:52:01.919Z,24.13
2017-06-09T08:53:01.653Z,22.86
2017-06-09T08:54:01.992Z,23.57
2017-06-09T08:56:01.764Z,22.78
2017-06-09T08:58:02.140Z,21.01
2017-06-09T08:59:16.799Z,21.5
2017-06-09T09:00:01.913Z,21.66
2017-06-09T09:01:02.252Z,22.25
2017-06-09T09:02:02.288Z,23.44
2017-06-09T09:03:02.024Z,23.83
2017-06-09T09:04:02.364Z,22.94
2017-06-09T09:05:02.400Z,24.22
2017-06-09T09:06:02.134Z,22.56
2017-06-09T09:07:02.475Z,22.46
2017-06-09T09:08:02.510Z,21.95
2017-06-09T09:09:02.546Z,21.67
2017-06-09T09:10:02.281Z,22.25
2017-06-09T09:11:02.620Z,22.26
2017-06-09T09:12:02.657Z,21.37
2017-06-09T09:13:02.698Z,22.66
2017-06-09T09:14:02.426Z,23.93
2017-06-09T09:15:17.386Z,22.26
2017-06-09T09:16:02.803Z,23.52
2017-06-09T09:17:02.840Z,22.62
2017-06-09T09:18:02.879Z,23.58
2017-06-09T09:19:02.912Z,22.8
2017-06-09T09:20:02.949Z,24.87
2017-06-09T09:21:02.987Z,23.79
2017-06-09T09:22:03.021Z,23.9
2017-06-09T09:23:03.096Z,24.01
2017-06-09T09:24:03.095Z,24.41
2017-06-09T09:25:03.130Z,24.53
2017-06-09T09:26:03.167Z,20.79
2017-06-09T09:27:03.204Z,21.88
2017-06-09T09:28:03.239Z,22.77
2017-06-09T09:29:03.274Z,21.78
2017-06-09T09:30:03.311Z,21.57
2017-06-09T09:31:17.968Z,21.87
2017-06-09T09:32:03.384Z,23.72
2017-06-09T09:33:03.421Z,21.94
2017-06-09T09:34:03.505Z,23.31
2017-06-09T09:35:03.493Z,24.11
2017-06-09T09:36:03.531Z,23.42
2017-06-09T09:37:03.564Z,22.05
2017-06-09T09:38:03.600Z,21.17
2017-06-09T09:39:03.637Z,22.44
2017-06-09T09:40:03.675Z,25.2
2017-06-09T09:41:03.707Z,23.24
2017-06-09T09:42:03.795Z,22.85
2017-06-09T09:43:03.780Z,22.08
2017-06-09T09:44:03.819Z,21
2017-06-09T09:45:03.551Z,22.26
2017-06-09T09:46:18.509Z,21.75
2017-06-09T09:47:03.926Z,22.35
2017-06-09T09:48:03.961Z,23.53
2017-06-09T09:49:03.996Z,23.24
2017-06-09T09:50:04.033Z,22.45
2017-06-09T09:51:04.069Z,22.46
2017-06-09T09:52:04.104Z,20.7
2017-06-09T09:53:04.140Z,21.09
2017-06-09T09:54:03.872Z,22.46
2017-06-09T09:55:04.212Z,22.53
2017-06-09T09:56:03.944Z,22.62
2017-06-09T09:57:04.283Z,23.99
2017-06-09T10:00:04.087Z,24.11
2017-06-09T10:01:04.124Z,23.42
2017-06-09T10:02:04.460Z,23.51
2017-06-09T10:03:04.495Z,22.24
2017-06-09T10:04:04.532Z,23.33
2017-06-09T10:05:04.569Z,24.04
2017-06-09T10:06:04.600Z,22.63
2017-06-09T10:07:04.637Z,22.24
2017-06-09T10:08:04.672Z,22.63
2017-06-09T10:09:04.708Z,22.34
2017-06-09T10:10:04.743Z,24.38
2017-06-09T10:11:04.476Z,23.3
2017-06-09T10:12:04.818Z,22.61
2017-06-09T10:13:04.848Z,23.31
2017-06-09T10:14:04.883Z,23.41
2017-06-09T10:15:04.921Z,24.48
2017-06-09T10:16:04.956Z,23.6
2017-06-09T10:17:04.988Z,23.88
2017-06-09T10:18:19.642Z,24.17
2017-06-09T10:19:05.058Z,25.35
2017-06-09T10:20:05.095Z,24.65
2017-06-09T10:21:05.128Z,24.46
2017-06-09T10:22:05.165Z,23.97
2017-06-09T10:23:05.198Z,24.06
2017-06-09T10:24:05.234Z,25.21
2017-06-09T10:25:04.963Z,25.29
2017-06-09T10:26:05.301Z,25.85
2017-06-09T10:27:05.339Z,26.05
2017-06-09T10:28:05.372Z,26.54
2017-06-09T10:29:05.152Z,26.72
2017-06-09T10:30:05.139Z,27.31
2017-06-09T10:32:05.512Z,28.28
2017-06-09T10:33:05.543Z,29.17
2017-06-09T10:34:20.197Z,27.9
2017-06-09T10:35:05.617Z,29.16
2017-06-09T10:36:05.645Z,28.28
2017-06-09T10:37:05.377Z,29.14
2017-06-09T10:38:05.715Z,28.55
2017-06-09T10:39:05.748Z,29.93
2017-06-09T10:40:05.785Z,28.45
2017-06-09T10:41:05.816Z,30.32
2017-06-09T10:42:05.850Z,30.8
2017-06-09T10:43:05.883Z,29.35
2017-06-09T10:44:05.917Z,29.34
2017-06-09T10:45:05.952Z,29.34
2017-06-09T10:46:05.986Z,30.69
2017-06-09T10:47:06.021Z,29.61
2017-06-09T10:48:06.055Z,29.91
2017-06-09T10:49:06.093Z,30.68
2017-06-09T10:50:20.740Z,29.8
2017-06-09T10:51:06.153Z,30.09
2017-06-09T10:52:06.189Z,30.66
2017-06-09T10:53:06.223Z,30.08
2017-06-09T10:54:06.255Z,29.77
2017-06-09T10:55:06.291Z,31.82
2017-06-09T10:56:06.324Z,33.28
2017-06-09T10:57:06.360Z,31.15
2017-06-09T10:58:06.394Z,30.76
2017-06-09T10:59:06.423Z,30.19
2017-06-09T11:00:06.462Z,31.95
2017-06-09T11:01:06.489Z,31.46
2017-06-09T11:02:06.221Z,29.5
2017-06-09T11:03:06.558Z,29.8
2017-06-09T11:04:06.287Z,32.03
2017-06-09T11:05:06.318Z,31.16
2017-06-09T11:06:21.276Z,30.38
2017-06-09T11:07:06.689Z,30.47
2017-06-09T11:08:06.724Z,30.66
2017-06-09T11:09:06.755Z,31.07
2017-06-09T11:10:06.788Z,31.65
2017-06-09T11:11:06.823Z,29.9
2017-06-09T11:12:06.857Z,29.6
2017-06-09T11:13:06.936Z,29.31
2017-06-09T11:14:06.619Z,29.7
2017-06-09T11:15:06.955Z,28.92
2017-06-09T11:16:06.991Z,30.38
2017-06-09T11:18:07.054Z,28.92
2017-06-09T11:19:07.093Z,29.49
2017-06-09T11:20:07.120Z,30.45
2017-06-09T11:21:21.771Z,30.26
2017-06-09T11:22:07.184Z,31.45
2017-06-09T11:23:07.267Z,29.9
2017-06-09T11:24:06.946Z,30.1
2017-06-09T11:25:07.285Z,28.25
2017-06-09T11:26:07.317Z,28.83
2017-06-09T11:27:07.350Z,29.11
2017-06-09T11:28:07.384Z,30.77
2017-06-09T11:29:07.471Z,30.2
2017-06-09T11:30:07.449Z,28.54
2017-06-09T11:31:07.478Z,28.64
2017-06-09T11:33:07.545Z,29.7
2017-06-09T11:34:07.576Z,28.44
2017-06-09T11:35:07.611Z,27.86
2017-06-09T11:36:07.642Z,29.91
2017-06-09T11:37:07.678Z,28.44
2017-06-09T11:38:07.707Z,28.45
2017-06-09T11:39:07.742Z,27.58
2017-06-09T11:40:07.773Z,27.56
2017-06-09T11:41:07.807Z,28.64
2017-06-09T11:42:07.838Z,29.9
2017-06-09T11:43:07.889Z,28.83
2017-06-09T11:44:07.956Z,28.44
2017-06-09T11:45:07.938Z,28.05
2017-06-09T11:46:07.665Z,28.23
2017-06-09T11:47:08.002Z,28.43
2017-06-09T11:48:08.036Z,28.44
2017-06-09T11:49:08.067Z,27.95
2017-06-09T11:51:08.134Z,28.34
2017-06-09T11:52:08.170Z,28.34
2017-06-09T11:53:22.818Z,28.34
2017-06-09T11:54:07.927Z,29.22
2017-06-09T11:55:08.266Z,28.74
2017-06-09T11:56:08.348Z,29.03
2017-06-09T11:57:08.328Z,29.32
2017-06-09T11:58:08.361Z,28.55
2017-06-09T11:59:08.399Z,27.86
2017-06-09T12:00:08.477Z,28.43
2017-06-09T12:01:08.458Z,28.04
2017-06-09T12:02:08.490Z,28.42
2017-06-09T12:03:08.523Z,30.66
2017-06-09T12:04:08.250Z,29.7
2017-06-09T12:05:08.588Z,28.72
2017-06-09T12:06:08.621Z,29
2017-06-09T12:07:08.654Z,29
2017-06-09T12:08:08.685Z,29.3
2017-06-09T12:09:23.338Z,29.39
2017-06-09T12:10:08.751Z,29.41
2017-06-09T12:11:08.783Z,29.69
2017-06-09T12:12:08.512Z,29.3
2017-06-09T12:13:08.847Z,29.49
2017-06-09T12:14:08.879Z,30.29
2017-06-09T12:15:08.911Z,29.6
2017-06-09T12:16:08.641Z,31.08
2017-06-09T12:17:08.976Z,30
2017-06-09T12:18:09.007Z,28.93
2017-06-09T12:19:09.040Z,29.32
2017-06-09T12:20:08.771Z,29.42
2017-06-09T12:21:09.106Z,29.13
2017-06-09T12:22:09.137Z,28.34
2017-06-09T12:24:09.202Z,30.41
2017-06-09T12:25:23.854Z,27.67
2017-06-09T12:26:09.266Z,28.74
2017-06-09T12:27:08.997Z,29.13
2017-06-09T12:28:09.332Z,29.52
2017-06-09T12:29:09.363Z,29.13
2017-06-09T12:30:09.094Z,28.25
2017-06-09T12:31:09.429Z,27.84
2017-06-09T12:32:09.463Z,28.33
2017-06-09T12:33:09.494Z,30.19
2017-06-09T12:34:09.525Z,29.5
2017-06-09T12:35:09.559Z,28.25
2017-06-09T12:36:09.589Z,29.03
2017-06-09T12:38:09.355Z,28.93
2017-06-09T12:39:09.687Z,29.13
2017-06-09T12:40:09.414Z,28.33
2017-06-09T12:41:24.371Z,29.02
2017-06-09T12:42:09.784Z,29.8
2017-06-09T12:43:09.819Z,28.33
2017-06-09T12:44:09.847Z,29.21
2017-06-09T12:45:09.879Z,28.92
2017-06-09T12:46:09.916Z,29.31
2017-06-09T12:47:09.943Z,29.2
2017-06-09T12:48:09.980Z,29.3
2017-06-09T12:49:10.008Z,28.91
2017-06-09T12:50:10.044Z,29.1
2017-06-09T12:51:10.071Z,29.7
2017-06-09T12:52:10.105Z,29.7
2017-06-09T12:55:09.905Z,29.21
2017-06-09T12:56:24.854Z,28.63
2017-06-09T12:57:10.315Z,28.43
2017-06-09T12:58:10.297Z,28.53
2017-06-09T12:59:10.330Z,28.04
2017-06-09T13:00:10.363Z,28.93
2017-06-09T13:01:10.395Z,27.76
2017-06-09T13:02:10.426Z,27.66
2017-06-09T13:03:10.155Z,28.25
2017-06-09T13:04:10.490Z,28.04
2017-06-09T13:05:10.524Z,27.55
2017-06-09T13:06:10.250Z,28.33
2017-06-09T13:07:10.637Z,28.52
2017-06-09T13:08:10.623Z,28.42
2017-06-09T13:10:10.381Z,28.61
2017-06-09T13:11:10.714Z,29.39
2017-06-09T13:12:10.748Z,29.18
2017-06-09T13:13:10.778Z,29.38
2017-06-09T13:14:10.815Z,30.55
2017-06-09T13:15:10.540Z,30.16
2017-06-09T13:16:10.874Z,29.98
2017-06-09T13:17:10.906Z,29.7
2017-06-09T13:18:10.938Z,29.7
2017-06-09T13:19:10.970Z,28.82
2017-06-09T13:20:11.003Z,28.34
2017-06-09T13:21:10.732Z,28.93
2017-06-09T13:22:11.067Z,28.93
2017-06-09T13:23:11.098Z,29.32
2017-06-09T13:24:11.131Z,29.22
2017-06-09T13:26:11.194Z,27.45
2017-06-09T13:27:11.227Z,29.32
2017-06-09T13:28:25.882Z,29.02
2017-06-09T13:29:11.290Z,29.21
2017-06-09T13:30:11.333Z,28.72
2017-06-09T13:31:11.051Z,28.43
2017-06-09T13:32:11.385Z,28.63
2017-06-09T13:33:11.114Z,28.33
2017-06-09T13:34:11.450Z,28.44
2017-06-09T13:35:11.482Z,27.84
2017-06-09T13:36:11.514Z,28.53
2017-06-09T13:37:11.242Z,29.52
2017-06-09T13:38:11.577Z,29.03
2017-06-09T13:39:11.609Z,29.03
2017-06-09T13:40:11.337Z,28.64
2017-06-09T13:43:11.738Z,29.71
2017-06-09T13:44:26.389Z,29.03
2017-06-09T13:45:11.802Z,28.44
2017-06-09T13:46:11.834Z,28.05
2017-06-09T13:47:11.866Z,28.55
2017-06-09T13:48:11.897Z,27.48
2017-06-09T13:49:11.627Z,28.85